Latest Weather Observations for Parafield

IDS60901

Issued at 5:41 pm CST Tuesday 23 April 2019 (issued every 10 minutes, with the page automatically refreshed every 10 minutes)

About weather observations | Map of Adelaide area stations | Latest observations for Adelaide area | Other Formats
Station Details ID: 023013 Name: PARAFIELD AIRPORT Lat: -34.80 Lon: 138.63 Height: 9.5 m
Data from the previous 72 hours. | See also: Recent months at Parafield
Date/Time
CST
Temp
°C
App
Temp
°C
Dew
Point
°C
Rel
Hum
%
Delta-T
°C
Wind Press
QNH
hPa
Press
MSL
hPa
Rain since
9am
mm
Dir  Spd
km/h
Gust
km/h
Spd
kts
Gust
kts
23/05:30pm 17.4 11.9 6.0 47 5.5 SSE 24 32 13 17 1025.5 1025.4 0.0
23/05:00pm 18.9 14.1 5.7 42 6.5 SSE 20 26 11 14 1025.4 1025.3 0.0
23/04:30pm 19.9 14.3 5.2 38 7.2 SSE 24 32 13 17 1025.0 1024.9 0.0
23/04:00pm 21.6 17.1 4.2 32 8.4 SSE 17 28 9 15 1024.7 1024.6 0.0
23/03:30pm 21.7 17.8 5.2 34 8.1 SW 15 20 8 11 1024.6 1024.5 0.0
23/03:00pm 21.6 17.2 6.7 38 7.6 WSW 19 28 10 15 1024.9 1024.8 0.0
23/02:30pm 21.4 16.9 6.9 39 7.4 WSW 20 28 11 15 1025.1 1025.0 0.0
23/02:00pm 20.5 15.9 6.5 40 7.1 WSW 20 28 11 15 1025.5 1025.4 0.0
23/01:30pm 20.9 15.8 6.1 38 7.4 WSW 22 32 12 17 1025.9 1025.8 0.0
23/01:00pm 20.3 15.6 5.9 39 7.2 WSW 20 28 11 15 1026.3 1026.2 0.0
23/12:30pm 20.6 16.7 6.9 41 6.9 WSW 17 30 9 16 1026.7 1026.6 0.0
23/12:00pm 20.8 18.2 4.4 34 7.9 E 7 13 4 7 1027.2 1027.1 0.0
23/11:30am 20.0 17.2 5.3 38 7.2 S 9 15 5 8 1027.5 1027.4 0.0
23/11:00am 19.3 16.5 5.0 39 6.9 SSE 9 20 5 11 1027.8 1027.7 0.0
23/10:30am 18.9 16.2 5.4 41 6.5 SE 9 19 5 10 1028.1 1028.0 0.0
23/10:00am 18.8 15.4 6.0 43 6.3 SSE 13 19 7 10 1028.2 1028.1 0.0
23/09:30am 17.7 14.7 5.9 46 5.7 SE 11 17 6 9 1028.2 1028.1 0.0
23/09:00am 16.7 14.8 6.5 51 5.0 S 6 9 3 5 1028.3 1028.2 0.0
23/08:30am 15.8 13.6 6.0 52 4.7 SSE 7 13 4 7 1028.3 1028.2 0.0
23/08:00am 14.4 13.3 6.7 60 3.7 SSW 2 7 1 4 1028.2 1028.1 0.0
23/07:30am 12.4 11.3 7.1 70 2.5 N 2 7 1 4 1028.0 1027.9 0.0
23/07:00am 11.1 9.4 5.8 70 2.5 E 4 9 2 5 1027.8 1027.7 0.0
23/06:30am 11.6 9.3 5.7 67 2.7 E 7 13 4 7 1027.5 1027.4 0.0
23/06:00am 11.8 10.6 6.3 69 2.6 SE 2 7 1 4 1027.3 1027.2 0.0
23/05:30am 10.7 8.6 5.9 72 2.2 NE 6 9 3 5 1027.0 1026.9 0.0
23/05:00am 11.2 9.9 6.1 71 2.4 ENE 2 7 1 4 1026.6 1026.5 0.0
23/04:30am 12.0 11.0 7.3 73 2.3 NW 2 11 1 6 1026.3 1026.2 0.0
23/04:00am 11.7 11.0 7.0 73 2.2 CALM 0 7 0 4 1026.3 1026.2 0.0
23/03:30am 11.3 9.0 7.4 77 1.9 S 9 13 5 7 1026.4 1026.3 0.0
23/03:00am 11.6 10.2 7.1 74 2.1 SSW 4 9 2 5 1026.5 1026.4 0.0
23/02:30am 12.3 11.1 8.0 75 2.1 SSE 4 11 2 6 1026.7 1026.6 0.0
23/02:00am 11.3 8.2 7.2 76 2.0 SSE 13 20 7 11 1027.0 1026.9 0.0
23/01:30am 10.8 7.9 6.6 75 2.0 SSE 11 13 6 7 1027.2 1027.1 0.0
23/01:00am 12.0 9.7 7.3 73 2.3 SSE 9 13 5 7 1027.4 1027.3 0.0
23/12:30am 12.4 9.7 7.5 72 2.4 SSE 11 17 6 9 1027.5 1027.4 0.0
23/12:00am 13.0 10.6 7.2 68 2.8 S 9 15 5 8 1027.7 1027.6 0.0
 
Date/Time
CST
Temp
°C
App
Temp
°C
Dew
Point
°C
Rel
Hum
%
Delta-T
°C
Wind Press
QNH
hPa
Press
MSL
hPa
Rain since
9am
mm
Dir  Spd
km/h
Gust
km/h
Spd
kts
Gust
kts
22/11:30pm 13.3 11.0 7.5 68 2.8 SSE 9 15 5 8 1027.7 1027.6 0.0
22/11:00pm 13.3 11.3 6.4 63 3.3 SSE 6 11 3 6 1027.7 1027.6 0.0
22/10:30pm 13.1 10.1 6.0 62 3.3 S 11 17 6 9 1027.7 1027.6 0.0
22/10:00pm 12.8 10.7 6.6 66 3.0 S 7 11 4 6 1027.6 1027.5 0.0
22/09:30pm 13.0 11.5 6.6 65 3.0 SSW 4 7 2 4 1027.7 1027.6 0.0
22/09:00pm 13.4 11.8 6.5 63 3.3 S 4 9 2 5 1027.7 1027.6 0.0
22/08:30pm 13.1 10.2 6.5 64 3.1 S 11 15 6 8 1027.7 1027.6 0.0
22/08:00pm 13.8 11.2 6.2 60 3.6 SE 9 13 5 7 1027.6 1027.5 0.0
22/07:30pm 14.2 10.5 6.1 58 3.8 S 15 19 8 10 1027.5 1027.4 0.0
22/07:00pm 14.3 10.5 5.9 57 4.0 SSE 15 19 8 10 1027.3 1027.2 0.0
22/06:30pm 15.5 11.5 6.8 56 4.2 S 17 24 9 13 1026.8 1026.7 0.0
22/06:00pm 16.4 11.9 6.0 50 5.0 SSE 19 26 10 14 1026.3 1026.2 0.0
22/05:30pm 17.5 12.7 5.8 46 5.7 SSE 20 28 11 15 1025.7 1025.6 0.0
22/05:00pm 18.4 12.8 5.3 42 6.4 SE 24 30 13 16 1025.2 1025.1 0.0
22/04:30pm 19.4 13.7 5.1 39 6.9 SSE 24 33 13 18 1024.8 1024.7 0.0
22/04:00pm 20.0 14.5 6.0 40 7.0 SSW 24 35 13 19 1024.6 1024.5 0.0
22/03:30pm 20.9 16.4 4.0 33 8.1 S 17 24 9 13 1024.6 1024.5 0.0
22/03:00pm 21.6 17.9 4.2 32 8.4 SE 13 24 7 13 1024.6 1024.5 0.0
22/02:30pm 21.0 16.5 4.1 33 8.1 SW 17 28 9 15 1024.5 1024.4 0.0
22/02:00pm 20.8 15.9 5.2 36 7.7 SW 20 30 11 16 1024.8 1024.7 0.0
22/01:30pm 20.4 15.4 4.4 35 7.7 SSW 20 32 11 17 1025.0 1024.9 0.0
22/01:00pm 20.5 15.5 3.7 33 8.0 WSW 19 32 10 17 1025.3 1025.2 0.0
22/12:30pm 20.0 15.3 3.3 33 7.8 SE 17 26 9 14 1025.6 1025.5 0.0
22/12:00pm 19.9 15.3 3.6 34 7.7 SSW 17 28 9 15 1026.0 1025.9 0.0
22/11:30am 19.6 16.2 4.1 36 7.4 SE 11 20 6 11 1026.5 1026.4 0.0
22/11:00am 19.8 15.9 3.5 34 7.7 S 13 24 7 13 1026.8 1026.7 0.0
22/10:30am 18.5 14.2 5.4 42 6.3 S 17 22 9 12 1026.9 1026.8 0.0
22/10:00am 17.6 13.4 5.9 46 5.7 S 17 24 9 13 1027.0 1026.9 0.0
22/09:30am 17.3 14.0 6.2 48 5.4 SSE 13 17 7 9 1026.9 1026.8 0.0
22/09:00am 16.5 14.1 6.9 53 4.7 S 9 13 5 7 1027.0 1026.9 0.0
22/08:30am 15.0 13.2 8.0 63 3.5 SSW 7 9 4 5 1026.6 1026.5 0.0
22/08:00am 13.4 13.1 8.5 72 2.4 CALM 0 0 0 0 1026.4 1026.3 0.0
22/07:30am 9.9 8.2 7.5 85 1.1 NNE 6 7 3 4 1026.0 1025.9 0.0
22/07:00am 9.1 7.6 6.7 85 1.1 ENE 4 6 2 3 1025.6 1025.5 0.0
22/06:30am 8.5 7.7 6.5 87 0.9 CALM 0 0 0 0 1025.3 1025.2 0.0
22/06:00am 8.5 7.7 6.6 88 0.9 CALM 0 0 0 0 1025.4 1025.3 0.0
22/05:30am 8.2 6.0 6.3 88 0.9 ENE 7 9 4 5 1025.3 1025.2 0.0
22/05:00am 8.3 5.6 5.8 84 1.1 ENE 9 11 5 6 1025.2 1025.1 0.0
22/04:30am 9.0 6.9 5.7 80 1.5 ENE 6 9 3 5 1025.0 1024.9 0.0
22/04:00am 9.1 8.3 6.5 84 1.2 CALM 0 0 0 0 1024.6 1024.5 0.0
22/03:30am 9.5 8.8 6.8 83 1.3 CALM 0 4 0 2 1024.4 1024.3 0.0
22/03:00am 10.4 9.8 7.5 82 1.4 CALM 0 0 0 0 1024.4 1024.3 0.0
22/02:30am 11.0 9.7 7.5 79 1.7 SE 4 6 2 3 1024.5 1024.4 0.0
22/02:00am 12.0 9.7 7.5 74 2.2 ESE 9 9 5 5 1024.4 1024.3 0.0
22/01:30am 11.3 9.6 7.6 78 1.8 SE 6 7 3 4 1024.4 1024.3 0.0
22/01:00am 10.6 8.6 6.9 78 1.8 SSE 7 9 4 5 1024.4 1024.3 0.0
22/12:30am 11.1 9.6 6.8 75 2.0 ESE 4 6 2 3 1024.3 1024.2 0.0
22/12:00am 11.1 9.1 7.0 76 1.9 SSW 7 9 4 5 1024.2 1024.1 0.0
 
Date/Time
CST
Temp
°C
App
Temp
°C
Dew
Point
°C
Rel
Hum
%
Delta-T
°C
Wind Press
QNH
hPa
Press
MSL
hPa
Rain since
9am
mm
Dir  Spd
km/h
Gust
km/h
Spd
kts
Gust
kts
21/11:30pm 12.1 9.8 7.4 73 2.3 S 9 9 5 5 1024.2 1024.1 0.0
21/11:00pm 12.8 10.2 7.7 71 2.5 SSW 11 15 6 8 1024.1 1024.0 0.0
21/10:30pm 12.4 10.1 7.5 72 2.4 SSW 9 11 5 6 1024.1 1024.0 0.0
21/10:00pm 13.4 11.2 7.8 69 2.8 S 9 9 5 5 1023.9 1023.8 0.0
21/09:30pm 13.7 10.8 8.1 69 2.8 S 13 15 7 8 1023.9 1023.8 0.0
21/09:00pm 14.5 11.6 8.0 65 3.2 S 13 15 7 8 1023.7 1023.6 0.0
21/08:30pm 15.2 11.8 7.7 61 3.7 S 15 17 8 9 1023.6 1023.5 0.0
21/08:00pm 16.6 12.6 8.3 58 4.2 S 19 22 10 12 1023.2 1023.1 0.0
21/07:30pm 17.0 13.0 8.9 59 4.2 SSW 20 28 11 15 1023.0 1022.9 0.0
21/07:00pm 16.8 14.3 9.7 63 3.7 SSW 13 17 7 9 1022.8 1022.7 0.0
21/06:30pm 16.6 13.7 9.5 63 3.7 SSW 15 20 8 11 1022.3 1022.2 0.0
21/06:00pm 17.0 13.2 8.9 59 4.2 SW 19 24 10 13 1021.8 1021.7 0.0
21/05:30pm 17.5 14.6 8.1 54 4.8 SW 13 17 7 9 1021.5 1021.5 0.0
21/05:00pm 18.5 15.0 7.0 47 5.8 SW 15 19 8 10 1021.2 1021.2 0.0
21/04:30pm 18.7 15.0 7.8 49 5.5 SSW 17 20 9 11 1020.9 1020.9 0.0
21/04:00pm 19.1 15.6 7.2 46 6.0 SSW 15 20 8 11 1020.5 1020.5 0.0
21/03:30pm 19.4 15.4 6.8 44 6.3 SW 17 26 9 14 1019.9 1019.9 0.0
21/03:00pm 19.2 15.3 7.0 45 6.1 SW 17 24 9 13 1020.2 1020.2 0.0
21/02:30pm 20.5 16.6 8.5 46 6.3 WSW 19 26 10 14 1020.2 1020.2 0.0
21/02:00pm 20.2 16.1 7.9 45 6.4 WSW 19 28 10 15 1020.0 1020.0 0.0
21/01:30pm 20.5 16.2 7.2 42 6.8 SW 19 28 10 15 1020.0 1020.0 0.0
21/01:00pm 19.9 15.9 6.6 42 6.7 SW 17 24 9 13 1019.7 1019.7 0.0
21/12:30pm 20.2 16.3 8.8 48 6.0 WSW 19 28 10 15 1020.4 1020.4 0.0
21/12:00pm 18.5 14.4 10.1 58 4.5 WSW 22 32 12 17 1020.4 1020.4 0.0
21/11:30am 18.0 14.6 10.4 61 4.0 WSW 19 24 10 13 1020.5 1020.5 0.0
21/11:00am 18.0 15.1 11.1 64 3.7 W 17 22 9 12 1020.4 1020.4 0.0
21/10:30am 17.6 15.3 11.9 69 3.1 WSW 15 24 8 13 1020.6 1020.6 0.0
21/10:00am 17.1 14.9 12.0 72 2.8 WNW 15 20 8 11 1020.8 1020.8 0.0
21/09:30am 16.4 15.9 12.6 78 2.1 WNW 7 13 4 7 1020.2 1020.2 0.0
21/09:00am 15.6 14.6 12.4 81 1.7 W 9 13 5 7 1020.3 1020.3 0.2
21/08:30am 15.1 14.5 12.2 83 1.6 NW 7 11 4 6 1019.9 1019.9 0.2
21/08:00am 14.6 11.4 11.9 84 1.5 WSW 20 28 11 15 1019.4 1019.4 0.2
21/07:30am 15.9 12.2 10.2 69 3.0 WSW 20 28 11 15 1019.2 1019.2 0.0
21/07:00am 16.3 13.0 9.5 64 3.5 WSW 17 22 9 12 1018.5 1018.5 0.0
21/06:30am 16.4 13.5 11.1 71 2.8 WSW 17 24 9 13 1018.3 1018.3 0.0
21/06:00am 16.6 12.7 10.9 69 3.0 W 22 28 12 15 1018.4 1018.4 0.0
21/05:30am 17.1 14.2 13.0 77 2.3 W 20 28 11 15 1017.7 1017.7 0.0
21/05:00am 17.5 14.9 13.2 76 2.4 W 19 24 10 13 1017.3 1017.3 0.0
21/04:30am 18.0 15.4 13.3 74 2.6 W 19 26 10 14 1017.4 1017.4 0.0
21/04:00am 18.6 16.1 13.5 72 2.9 W 19 26 10 14 1017.2 1017.2 0.0
21/03:42am 18.7 16.1 13.3 71 3.1 W 19 32 10 17 1016.7 1016.7 0.0
21/03:30am 17.8 17.5 14.3 80 2.0 W 9 11 5 6 1016.4 1016.4 0.0
21/03:00am 17.8 18.7 14.1 79 2.1 SW 2 6 1 3 1015.6 1015.6 0.0
21/02:30am 18.2 18.6 14.7 80 2.0 S 6 9 3 5 1015.9 1015.9 0.0
21/02:00am 18.6 17.4 15.1 80 2.0 SSW 15 20 8 11 1016.0 1016.0 0.0
21/01:30am 19.0 16.6 15.5 80 2.1 SSW 22 30 12 16 1016.2 1016.2 0.0
21/01:19am 19.3 17.6 15.8 80 2.1 SSW 19 26 10 14 1016.2 1016.2 0.0
21/01:00am 19.3 17.7 16.0 81 2.0 SSW 19 30 10 16 1016.0 1016.0 0.0
21/12:30am 19.2 15.4 15.7 80 2.1 WSW 30 44 16 24 1016.1 1016.1 0.0
21/12:18am 19.3 14.1 15.6 79 2.2 WSW 37 52 20 28 1015.7 1015.7 0.0
21/12:00am 20.3 14.9 15.1 72 3.1 WSW 37 57 20 31 1014.9 1014.9 0.0
 
Date/Time
CST
Temp
°C
App
Temp
°C
Dew
Point
°C
Rel
Hum
%
Delta-T
°C
Wind Press
QNH
hPa
Press
MSL
hPa
Rain since
9am
mm
Dir  Spd
km/h
Gust
km/h
Spd
kts
Gust
kts
20/11:46pm 21.7 16.3 12.8 57 5.1 W 33 52 18 28 1014.0 1014.0 0.0
20/11:30pm 26.4 20.0 0.9 19 12.1 N 24 32 13 17 1012.6 1012.6 0.0
20/11:00pm 26.7 19.5 0.4 18 12.3 NNE 28 37 15 20 1012.1 1012.1 0.0
20/10:30pm 27.0 20.2 0.7 18 12.4 NNE 26 33 14 18 1012.3 1012.3 0.0
20/10:00pm 27.3 20.8 0.1 17 12.8 NNE 24 32 13 17 1012.5 1012.5 0.0
20/09:30pm 27.4 20.5 0.2 17 12.8 NNE 26 37 14 20 1012.4 1012.4 0.0
20/09:00pm 27.0 20.4 -0.1 17 12.6 NE 24 32 13 17 1012.6 1012.6 0.0
20/08:30pm 27.2 21.5 0.8 18 12.5 NNE 20 26 11 14 1012.7 1012.7 0.0
20/08:00pm 26.5 21.1 1.0 19 12.1 NNE 19 26 10 14 1012.8 1012.8 0.0
20/07:30pm 26.5 21.6 1.7 20 11.9 NNE 17 20 9 11 1012.6 1012.6 0.0
20/07:00pm 25.8 21.5 1.2 20 11.6 NE 13 17 7 9 1012.6 1012.6 0.0
20/06:30pm 27.4 22.3 1.0 18 12.6 N 17 20 9 11 1012.7 1012.7 0.0
20/06:00pm 28.5 23.3 0.3 16 13.4 NNW 17 24 9 13 1012.4 1012.4 0.0

Latest Capital City Observations: Canberra | Sydney | Melbourne | Brisbane | Adelaide | Perth | Hobart | Darwin

Other formats

Comma delimited format used in spreadsheet applications
http://www.bom.gov.au/fwo/IDS60901/IDS60901.95677.axf

JavaScript Object Notation format (JSON) in row-major order
http://www.bom.gov.au/fwo/IDS60901/IDS60901.95677.json

Data quality

Most of these data are generated automatically and are frequently updated. Quality checks on data are not normally performed. It is possible for incorrect values to appear. Refer to information at About Latest Weather Observations and please check the disclaimer before using these data.